KMUT

Muscatine Municipal Airport

Muscatine, Iowa, USA
METAR KMUT 201115Z AUTO 06004KT 6SM BR FEW005 SCT090 19/19 A2992 RMK AO2
Observed Flight Rules
Sep-20 @ 11:15 UTC (8 minutes ago) Visual Flight Rules
Wind Visibility Clouds Conditions
60° at 4 knots 6 miles
  • Few at 500' AGL
  • Scattered at 9,000' AGL
  • Mist
Temperatures Readings
Current 19°C / 66°F
Dewpoint 19°C / 66°F
Humidity 100%
Altimeter 29.92" Hg
Pressure 1013 hPa
Elevation 167
METAR KMUT 201115Z AUTO 06004KT 6SM BR FEW005 SCT090 19/19 A2992 RMK AO2
Observed Flight Rules
Sep-20 @ 11:15 UTC
(8 minutes ago)
VFR
Wind Visibility
60° at 4 knots 6 miles
Clouds
  • Few at 500' AGL
  • Scattered at 9,000' AGL
Conditions
  • Mist
Temperature Dewpoint
19°C / 66°F 19°C / 66°F
Humidity Altimeter Pressure
100% 29.92" Hg 1013 hPa